Caribou, California
Current Conditions -  °F | °C
As of 7:50 AM on Sunday 23 Nov 2014 (Local Time) from KCIC Reporting Station
Broken Clouds Broken Clouds  
Wind Chill: 37°   Ceiling: 15000
Heat Index: 41°   Visibility: 40mi
Dew Point: 41°   Wind: 6mph
Humidity: 100%   Direction: 320°NW
Pressure: 30.33"   Gusts: NA
Location:  40.0464°N, 121.282°W
Report Text: KCIC 231550Z 32005KT 40SM BKN150 05/05 A3033
Loading
Personal Weather Stations






























Interactive Weather Map New forecast layout! Learn more

10-Day Weather Forecast

Advertisements
Track Severe Weather on mobile